Time;durP1;ratioP1;P1;durP2;ratioP2;P2;SDS_P1;SDS_P2;PMS_P1;PMS_P2;Temp;Humidity;BMP_temperature;BMP_pressure;BME280_temperature;BME280_humidity;BME280_pressure;Samples;Min_cycle;Max_cycle;Signal;HPM_P1;HPM_P2
2023/06/18 00:02:08;;;;;;;24.63;20.58;;;;;;;;;;5055588;28;20142;-74
2023/06/18 00:04:34;;;;;;;26.90;20.90;;;;;;;;;;4981413;28;20066;-75
2023/06/18 00:07:00;;;;;;;28.20;22.92;;;;;;;;;;4987814;28;20052;-74
2023/06/18 00:09:26;;;;;;;28.92;22.40;;;;;;;;;;4981737;28;20046;-74
2023/06/18 00:11:52;;;;;;;29.40;23.27;;;;;;;;;;5047491;28;20497;-74
2023/06/18 00:14:18;;;;;;;29.02;23.75;;;;;;;;;;4985209;28;20500;-74
2023/06/18 00:16:44;;;;;;;25.08;22.10;;;;;;;;;;5053854;28;20559;-74
2023/06/18 00:19:10;;;;;;;29.20;22.73;;;;;;;;;;5052418;28;20043;-74
2023/06/18 00:21:37;;;;;;;31.08;23.98;;;;;;;;;;4988873;28;20126;-74
2023/06/18 00:24:03;;;;;;;33.60;26.13;;;;;;;;;;4992575;28;20050;-73
2023/06/18 00:26:29;;;;;;;28.35;23.83;;;;;;;;;;4988382;28;20489;-74
2023/06/18 00:28:55;;;;;;;29.70;24.05;;;;;;;;;;5051642;28;20050;-74
2023/06/18 00:31:21;;;;;;;32.20;25.05;;;;;;;;;;5047734;28;20053;-74
2023/06/18 00:33:47;;;;;;;30.58;24.33;;;;;;;;;;5049760;28;20046;-74
2023/06/18 00:36:15;;;;;;;32.35;25.48;;;;;;;;;;4982544;28;20547;-73
2023/06/18 00:38:46;;;;;;;32.95;24.73;;;;;;;;;;5046382;28;20069;-74
2023/06/18 00:41:12;;;;;;;27.55;22.60;;;;;;;;;;4982760;28;20115;-74
2023/06/18 00:43:38;;;;;;;26.35;21.67;;;;;;;;;;5049269;28;20103;-74
2023/06/18 00:46:05;;;;;;;27.17;22.02;;;;;;;;;;5049578;28;20045;-74
2023/06/18 00:48:31;;;;;;;25.98;21.67;;;;;;;;;;4980676;28;20046;-74
2023/06/18 00:50:59;;;;;;;25.83;20.67;;;;;;;;;;5048854;28;20062;-74
2023/06/18 00:53:25;;;;;;;28.88;21.15;;;;;;;;;;4981703;28;20043;-74
2023/06/18 00:55:52;;;;;;;28.13;22.80;;;;;;;;;;5041132;28;20059;-74
2023/06/18 00:58:23;;;;;;;25.88;21.42;;;;;;;;;;5053895;28;20099;-74
2023/06/18 01:00:50;;;;;;;28.45;22.27;;;;;;;;;;5052037;28;20058;-74
2023/06/18 01:03:17;;;;;;;27.48;22.08;;;;;;;;;;5053805;28;20486;-74
2023/06/18 01:05:48;;;;;;;29.35;24.38;;;;;;;;;;4979162;28;20042;-74
2023/06/18 01:08:14;;;;;;;27.10;22.50;;;;;;;;;;5047507;28;20453;-73
2023/06/18 01:10:41;;;;;;;33.28;24.95;;;;;;;;;;5049915;28;20049;-74
2023/06/18 01:13:11;;;;;;;29.38;22.60;;;;;;;;;;4988686;28;20046;-74
2023/06/18 01:15:40;;;;;;;28.02;23.48;;;;;;;;;;4985871;28;20039;-74
2023/06/18 01:18:07;;;;;;;29.38;24.20;;;;;;;;;;5056724;28;20133;-74
2023/06/18 01:20:40;;;;;;;27.60;22.40;;;;;;;;;;4982530;28;20051;-74
2023/06/18 01:23:10;;;;;;;31.88;25.92;;;;;;;;;;4981497;28;20412;-74
2023/06/18 01:25:37;;;;;;;36.20;26.58;;;;;;;;;;5050582;28;20398;-74
2023/06/18 01:28:07;;;;;;;33.15;27.08;;;;;;;;;;4982498;28;20130;-74
2023/06/18 01:30:36;;;;;;;32.45;25.52;;;;;;;;;;4984063;28;20047;-74
2023/06/18 01:33:03;;;;;;;35.13;27.65;;;;;;;;;;4980615;28;20138;-74
2023/06/18 01:35:29;;;;;;;36.33;27.77;;;;;;;;;;5048058;28;20046;-74
2023/06/18 01:38:07;;;;;;;33.88;25.50;;;;;;;;;;4980282;28;20519;-74
2023/06/18 01:40:43;;;;;;;34.78;27.60;;;;;;;;;;5036522;28;20042;-74
2023/06/18 01:43:16;;;;;;;35.30;27.67;;;;;;;;;;5032948;28;20415;-74
2023/06/18 01:45:42;;;;;;;;;;;;;;;;;;4982100;28;20069;-74
2023/06/18 01:48:09;;;;;;;36.47;27.10;;;;;;;;;;5049458;28;20381;-74
2023/06/18 01:50:36;;;;;;;36.28;27.58;;;;;;;;;;4983868;28;20047;-74
2023/06/18 01:53:03;;;;;;;35.08;26.65;;;;;;;;;;4981685;28;20180;-74
2023/06/18 01:55:29;;;;;;;34.65;26.15;;;;;;;;;;5047733;28;20103;-74
2023/06/18 01:57:56;;;;;;;35.53;27.77;;;;;;;;;;4977038;28;20051;-74
2023/06/18 02:00:22;;;;;;;35.22;26.15;;;;;;;;;;5049187;28;20489;-74
2023/06/18 02:02:51;;;;;;;35.50;25.88;;;;;;;;;;4981692;28;20393;-73
2023/06/18 02:05:17;;;;;;;36.35;26.42;;;;;;;;;;4981107;28;20121;-74
2023/06/18 02:07:43;;;;;;;34.13;26.52;;;;;;;;;;5047844;28;20081;-74
2023/06/18 02:10:09;;;;;;;38.53;28.85;;;;;;;;;;4983834;28;20087;-74
2023/06/18 02:12:35;;;;;;;34.85;26.88;;;;;;;;;;4981523;28;20042;-74
2023/06/18 02:15:02;;;;;;;35.92;26.52;;;;;;;;;;5050998;28;20069;-74
2023/06/18 02:17:28;;;;;;;34.95;25.27;;;;;;;;;;4982968;28;20038;-74
2023/06/18 02:19:54;;;;;;;33.53;25.27;;;;;;;;;;5051541;28;20574;-74
2023/06/18 02:22:22;;;;;;;36.20;26.83;;;;;;;;;;4984900;28;20103;-74
2023/06/18 02:24:48;;;;;;;40.17;27.77;;;;;;;;;;4982956;28;20042;-74
2023/06/18 02:27:14;;;;;;;35.55;25.05;;;;;;;;;;4984350;28;20043;-74
2023/06/18 02:29:42;;;;;;;32.60;26.08;;;;;;;;;;5052568;28;20398;-73
2023/06/18 02:32:08;;;;;;;37.97;28.50;;;;;;;;;;4977231;28;20062;-73
2023/06/18 02:34:34;;;;;;;36.42;27.95;;;;;;;;;;4996902;28;20039;-75
2023/06/18 02:37:00;;;;;;;34.63;26.67;;;;;;;;;;5081198;28;20110;-74
2023/06/18 02:39:26;;;;;;;34.10;26.85;;;;;;;;;;5053305;28;20162;-74
2023/06/18 02:41:52;;;;;;;35.47;26.30;;;;;;;;;;4991353;28;20097;-74
2023/06/18 02:44:19;;;;;;;39.33;29.25;;;;;;;;;;4991283;28;20042;-73
2023/06/18 02:46:45;;;;;;;37.40;28.65;;;;;;;;;;5070911;28;20079;-74
2023/06/18 02:49:11;;;;;;;37.33;27.95;;;;;;;;;;5003892;28;20054;-74
2023/06/18 02:51:37;;;;;;;38.63;27.88;;;;;;;;;;4997621;28;20038;-73
2023/06/18 02:54:03;;;;;;;36.50;27.48;;;;;;;;;;5058060;28;20129;-74
2023/06/18 02:56:29;;;;;;;35.53;27.60;;;;;;;;;;4992131;28;20039;-74
2023/06/18 02:58:56;;;;;;;34.35;25.58;;;;;;;;;;5062130;28;20058;-74
2023/06/18 03:01:25;;;;;;;34.28;25.52;;;;;;;;;;5053297;28;20129;-74
2023/06/18 03:03:53;;;;;;;41.05;29.75;;;;;;;;;;4988695;28;20046;-74
2023/06/18 03:06:19;;;;;;;35.33;26.90;;;;;;;;;;5053751;28;20050;-74
2023/06/18 03:08:46;;;;;;;37.28;28.08;;;;;;;;;;4989989;28;20042;-74
2023/06/18 03:11:12;;;;;;;38.00;28.75;;;;;;;;;;5054056;28;20061;-74
2023/06/18 03:13:38;;;;;;;37.08;27.98;;;;;;;;;;5050558;28;20049;-74
2023/06/18 03:16:04;;;;;;;38.67;27.67;;;;;;;;;;5051443;28;20050;-74
2023/06/18 03:18:31;;;;;;;34.95;26.80;;;;;;;;;;4982619;28;20076;-74
2023/06/18 03:20:57;;;;;;;35.85;27.05;;;;;;;;;;4983961;28;20046;-74
2023/06/18 03:23:23;;;;;;;38.03;28.67;;;;;;;;;;4986612;28;20054;-74
2023/06/18 03:25:49;;;;;;;35.45;25.80;;;;;;;;;;5057471;28;20054;-74
2023/06/18 03:28:15;;;;;;;37.72;27.58;;;;;;;;;;5051025;28;20099;-74
2023/06/18 03:30:42;;;;;;;37.10;28.92;;;;;;;;;;5056023;28;20050;-74
2023/06/18 03:33:08;;;;;;;41.05;29.20;;;;;;;;;;5049374;28;20046;-74
2023/06/18 03:35:36;;;;;;;39.35;28.92;;;22.80;99.90;;;;;;4981847;28;20056;-74
2023/06/18 03:38:02;;;;;;;39.03;29.48;;;16.80;99.90;;;;;;5051321;28;20059;-76
2023/06/18 03:40:28;;;;;;;36.88;27.25;;;16.60;99.90;;;;;;4983537;28;20050;-73
2023/06/18 03:42:54;;;;;;;36.85;27.02;;;16.50;99.90;;;;;;4982024;28;20038;-74
2023/06/18 03:45:20;;;;;;;37.83;28.00;;;16.50;99.90;;;;;;4982714;28;20046;-74
2023/06/18 03:47:46;;;;;;;38.50;27.67;;;16.50;99.90;;;;;;5051037;28;20050;-74
2023/06/18 03:50:12;;;;;;;37.10;26.88;;;16.60;99.90;;;;;;4980742;28;20076;-74
2023/06/18 03:52:38;;;;;;;36.28;27.63;;;16.50;99.90;;;;;;5055658;28;20054;-74
2023/06/18 03:55:04;;;;;;;38.25;27.15;;;16.60;99.90;;;;;;5059495;28;20129;-74
2023/06/18 03:57:30;;;;;;;36.38;25.85;;;16.60;99.90;;;;;;4982989;28;20050;-74
2023/06/18 03:59:56;;;;;;;38.20;27.08;;;16.60;99.90;;;;;;4989205;28;20379;-74
2023/06/18 04:02:21;;;;;;;36.10;27.13;;;16.60;99.90;;;;;;4981371;28;20042;-74
2023/06/18 04:04:47;;;;;;;35.70;27.20;;;16.60;99.90;;;;;;4988676;28;20088;-74
2023/06/18 04:07:13;;;;;;;35.47;27.55;;;16.60;99.90;;;;;;5047814;28;20107;-74
2023/06/18 04:09:39;;;;;;;36.17;27.08;;;16.60;99.90;;;;;;4987014;28;20058;-73
2023/06/18 04:12:06;;;;;;;35.60;26.48;;;16.60;99.90;;;;;;5051711;28;20486;-74
2023/06/18 04:14:34;;;;;;;36.47;27.23;;;16.60;99.90;;;;;;5054905;28;20486;-75
2023/06/18 04:17:00;;;;;;;36.47;27.30;;;16.60;99.90;;;;;;5047693;28;20050;-74
2023/06/18 04:19:26;;;;;;;38.15;27.25;;;16.70;99.90;;;;;;5057403;28;20140;-74
2023/06/18 04:21:51;;;;;;;36.40;27.67;;;16.70;99.90;;;;;;5038286;28;20057;-74
2023/06/18 04:24:17;;;;;;;38.17;29.00;;;16.70;99.90;;;;;;4985158;28;20393;-73
2023/06/18 04:26:43;;;;;;;36.38;26.85;;;16.70;99.90;;;;;;4991750;28;20121;-74
2023/06/18 04:29:08;;;;;;;36.45;27.80;;;16.70;99.90;;;;;;5056151;28;20074;-74
2023/06/18 04:31:35;;;;;;;40.30;27.17;;;16.70;99.90;;;;;;5051789;28;20034;-74
2023/06/18 04:34:01;;;;;;;34.08;25.27;;;16.70;99.90;;;;;;5057929;28;20486;-74
2023/06/18 04:36:26;;;;;;;33.97;25.98;;;16.70;99.90;;;;;;5056272;28;20049;-74
2023/06/18 04:38:52;;;;;;;31.83;24.95;;;16.70;99.90;;;;;;5053502;28;20421;-75
2023/06/18 04:41:17;;;;;;;34.30;25.58;;;16.80;99.90;;;;;;4990444;28;20081;-74
2023/06/18 04:43:43;;;;;;;29.00;23.42;;;16.80;99.90;;;;;;5055395;28;20038;-74
2023/06/18 04:46:09;;;;;;;31.55;24.70;;;16.90;99.90;;;;;;5057498;28;20451;-73
2023/06/18 04:48:34;;;;;;;29.98;23.45;;;16.90;99.90;;;;;;4983914;28;20031;-74
2023/06/18 04:51:00;;;;;;;31.70;25.08;;;17.00;99.90;;;;;;4988840;28;20106;-73
2023/06/18 04:53:26;;;;;;;33.90;24.92;;;;;;;;;;4989660;28;20102;-74
2023/06/18 04:55:52;;;;;;;33.60;26.25;;;;;;;;;;5054053;28;20034;-74
2023/06/18 04:58:20;;;;;;;35.42;27.15;;;;;;;;;;4984627;28;20507;-73
2023/06/18 05:00:46;;;;;;;34.45;25.88;;;;;;;;;;4981164;28;20043;-73
2023/06/18 05:03:12;;;;;;;36.15;25.83;;;;;;;;;;4985009;28;20054;-74
2023/06/18 05:05:38;;;;;;;36.47;27.23;;;;;;;;;;5047131;28;20043;-73
2023/06/18 05:08:05;;;;;;;34.95;27.33;;;;;;;;;;5037204;28;20045;-73
2023/06/18 05:10:33;;;;;;;36.83;26.30;;;;;;;;;;4983088;28;20048;-73
2023/06/18 05:12:59;;;;;;;36.58;27.05;;;;;;;;;;5051989;28;20095;-74
2023/06/18 05:15:25;;;;;;;33.70;25.40;;;;;;;;;;4982132;28;20050;-74
2023/06/18 05:17:51;;;;;;;35.00;25.95;;;;;;;;;;5053291;28;20209;-74
2023/06/18 05:20:17;;;;;;;36.40;26.67;;;;;;;;;;4984380;28;20082;-74
2023/06/18 05:22:43;;;;;;;33.13;25.75;;;;;;;;;;5054067;28;20125;-73
2023/06/18 05:25:09;;;;;;;33.00;26.83;;;;;;;;;;4983257;28;20041;-73
2023/06/18 05:27:35;;;;;;;35.30;26.83;;;;;;;;;;5049064;28;20082;-74
2023/06/18 05:30:01;;;;;;;35.47;27.30;;;;;;;;;;5050163;28;20047;-74
2023/06/18 05:32:28;;;;;;;32.15;25.55;;;;;;;;;;5045279;28;20457;-74
2023/06/18 05:34:55;;;;;;;33.20;25.05;;;;;;;;;;5046702;28;20049;-74
2023/06/18 05:37:22;;;;;;;33.78;24.98;;;;;;;;;;4982577;28;20054;-74
2023/06/18 05:39:49;;;;;;;33.75;25.45;;;;;;;;;;5049055;28;20772;-74
2023/06/18 05:42:15;;;;;;;34.22;24.85;;;;;;;;;;5049149;28;20089;-73
2023/06/18 05:44:41;;;;;;;33.05;26.20;;;;;;;;;;4978464;28;20507;-74
2023/06/18 05:47:07;;;;;;;33.13;26.35;;;;;;;;;;4981908;28;20086;-74
2023/06/18 05:49:33;;;;;;;35.92;26.48;;;;;;;;;;4980171;28;20061;-74
2023/06/18 05:51:59;;;;;;;33.15;25.13;;;;;;;;;;4980403;28;20486;-74
2023/06/18 05:54:25;;;;;;;33.08;25.00;;;;;;;;;;4979601;28;20053;-74
2023/06/18 05:56:51;;;;;;;36.42;26.63;;;;;;;;;;5051172;28;20073;-74
2023/06/18 05:59:17;;;;;;;37.30;26.85;;;;;;;;;;4976957;28;20046;-73
2023/06/18 06:01:43;;;;;;;29.83;23.77;;;;;;;;;;4979937;28;20050;-74
2023/06/18 06:04:09;;;;;;;33.75;25.73;;;;;;;;;;4980296;28;21583;-74
2023/06/18 06:06:36;;;;;;;35.60;26.83;;;;;;;;;;4982607;28;20046;-74
2023/06/18 06:09:02;;;;;;;33.03;24.95;;;;;;;;;;4983664;28;20061;-74
2023/06/18 06:11:28;;;;;;;32.25;24.30;;;;;;;;;;4985620;28;20057;-74
2023/06/18 06:13:55;;;;;;;31.45;25.50;;;;;;;;;;4982801;28;20558;-74
2023/06/18 06:16:21;;;;;;;30.38;22.83;;;;;;;;;;5046447;28;20103;-74
2023/06/18 06:18:49;;;;;;;32.72;25.08;;;;;;;;;;5052552;28;20042;-74
2023/06/18 06:21:15;;;;;;;30.23;23.55;;;;;;;;;;4988344;28;20524;-74
2023/06/18 06:23:41;;;;;;;29.80;23.33;;;;;;;;;;4985278;28;20047;-73
2023/06/18 06:26:07;;;;;;;27.38;21.65;;;;;;;;;;4982558;28;20054;-74
2023/06/18 06:28:33;;;;;;;29.30;23.63;;;;;;;;;;5042628;28;20050;-74
2023/06/18 06:30:59;;;;;;;26.65;22.13;;;;;;;;;;5051392;28;20050;-74
2023/06/18 06:33:26;;;;;;;29.65;22.38;;;;;;;;;;5053351;28;20054;-74
2023/06/18 06:35:52;;;;;;;28.85;22.40;;;;;;;;;;4991969;28;20041;-74
2023/06/18 06:38:18;;;;;;;25.80;21.25;;;;;;;;;;5008039;28;20054;-73
2023/06/18 06:40:44;;;;;;;30.63;23.27;;;;;;;;;;5002272;28;20095;-73
2023/06/18 06:43:10;;;;;;;28.30;22.70;;;;;;;;;;4998329;28;20046;-74
2023/06/18 06:45:36;;;;;;;27.38;21.80;;;;;;;;;;5053179;28;20046;-74
2023/06/18 06:48:02;;;;;;;27.92;21.90;;;;;;;;;;5005984;28;20485;-74
2023/06/18 06:50:28;;;;;;;23.58;19.42;;;;;;;;;;4995931;28;20050;-74
2023/06/18 06:52:54;;;;;;;25.42;21.83;;;;;;;;;;4977194;28;20107;-74
2023/06/18 06:55:20;;;;;;;29.17;23.15;;;;;;;;;;4995516;28;20474;-74
2023/06/18 06:57:46;;;;;;;27.70;21.77;;;;;;;;;;5065735;28;20046;-74
2023/06/18 07:00:13;;;;;;;28.40;22.17;;;;;;;;;;4983049;28;20074;-74
2023/06/18 07:02:39;;;;;;;25.25;21.45;;;;;;;;;;4991435;28;20125;-74
2023/06/18 07:05:06;;;;;;;27.95;22.33;;;;;;;;;;4979273;28;20509;-74
2023/06/18 07:07:32;;;;;;;27.85;22.65;;;;;;;;;;4986337;28;20148;-74
2023/06/18 07:09:58;;;;;;;26.52;20.98;;;;;;;;;;4984915;28;20049;-74
2023/06/18 07:12:24;;;;;;;25.35;21.65;;;;;;;;;;5051373;28;20054;-74
2023/06/18 07:14:51;;;;;;;25.58;21.55;;;;;;;;;;4985438;28;20712;-74
2023/06/18 07:17:17;;;;;;;27.10;22.95;;;;;;;;;;4988262;28;20046;-74
2023/06/18 07:19:43;;;;;;;24.10;19.88;;;;;;;;;;4980043;28;20042;-74
2023/06/18 07:22:09;;;;;;;27.30;22.35;;;;;;;;;;5050343;28;20440;-73
2023/06/18 07:24:35;;;;;;;26.83;22.02;;;;;;;;;;4983026;28;20125;-74
2023/06/18 07:27:01;;;;;;;26.15;20.83;;;;;;;;;;4979610;28;20103;-73
2023/06/18 07:29:27;;;;;;;25.85;22.15;;;;;;;;;;5051741;28;20045;-73
2023/06/18 07:31:53;;;;;;;27.55;21.83;;;;;;;;;;4979046;28;20104;-74
2023/06/18 07:34:19;;;;;;;26.48;21.88;;;;;;;;;;5049626;28;20444;-74
2023/06/18 07:36:45;;;;;;;27.13;21.85;;;;;;;;;;4979731;28;20046;-74
2023/06/18 07:39:11;;;;;;;25.40;21.30;;;;;;;;;;5049971;28;20107;-74
2023/06/18 07:41:37;;;;;;;29.27;21.95;;;;;;;;;;4980118;28;20057;-74
2023/06/18 07:44:03;;;;;;;28.05;23.05;;;;;;;;;;4990650;28;20137;-75
2023/06/18 07:46:29;;;;;;;26.20;20.98;;;;;;;;;;5051661;28;20039;-74
2023/06/18 07:48:55;;;;;;;26.40;21.20;;;;;;;;;;4991843;28;20096;-74
2023/06/18 07:51:21;;;;;;;25.20;19.83;;;;;;;;;;5056753;28;20046;-74
2023/06/18 07:53:47;;;;;;;27.13;21.17;;;;;;;;;;4990656;28;20054;-74
2023/06/18 07:56:13;;;;;;;24.05;19.88;;;;;;;;;;4984515;28;20046;-74
2023/06/18 07:58:39;;;;;;;25.15;20.77;;;;;;;;;;5001025;28;20041;-74
2023/06/18 08:01:05;;;;;;;32.55;26.33;;;;;;;;;;4984382;28;20050;-74
2023/06/18 08:03:31;;;;;;;31.42;25.80;;;;;;;;;;5060774;28;20436;-74
2023/06/18 08:05:57;;;;;;;25.38;21.15;;;;;;;;;;4996834;28;20042;-74
2023/06/18 08:08:23;;;;;;;24.15;20.98;;;;;;;;;;4993010;28;20046;-74
2023/06/18 08:10:50;;;;;;;25.42;20.42;;;;;;;;;;4992798;28;20034;-74
2023/06/18 08:13:16;;;;;;;21.75;19.25;;;;;;;;;;4975677;28;20046;-74
2023/06/18 08:15:42;;;;;;;23.80;19.50;;;;;;;;;;5048397;28;20050;-74
2023/06/18 08:18:09;;;;;;;24.17;20.02;;;;;;;;;;5050071;28;20137;-74
2023/06/18 08:20:35;;;;;;;21.38;18.40;;;;;;;;;;4985123;28;20061;-74
2023/06/18 08:23:01;;;;;;;20.42;17.50;;;;;;;;;;4989933;28;20038;-74
2023/06/18 08:25:27;;;;;;;23.10;18.98;;;;;;;;;;4977837;28;20050;-73
2023/06/18 08:27:54;;;;;;;23.58;17.58;;;;;;;;;;4986470;28;20050;-73
2023/06/18 08:30:20;;;;;;;22.48;19.10;;;;;;;;;;5055188;28;20460;-74
2023/06/18 08:32:46;;;;;;;21.08;18.70;;;;;;;;;;5058083;28;20129;-74
2023/06/18 08:35:13;;;;;;;22.27;18.45;;;;;;;;;;5064954;28;20238;-73
2023/06/18 08:37:39;;;;;;;20.33;17.05;;;;;;;;;;4991694;28;20114;-74
2023/06/18 08:40:05;;;;;;;21.58;19.27;;;;;;;;;;5058023;28;20096;-74
2023/06/18 08:42:31;;;;;;;21.30;17.75;;;;;;;;;;5027989;28;20100;-74
2023/06/18 08:44:57;;;;;;;23.33;18.83;;;;;;;;;;4983087;28;20042;-74
2023/06/18 08:47:25;;;;;;;19.25;16.85;;;;;;;;;;5050971;28;20137;-73
2023/06/18 08:49:52;;;;;;;20.23;16.50;;;;;;;;;;4978628;28;20065;-74
2023/06/18 08:52:19;;;;;;;18.33;16.00;;;;;;;;;;5055196;28;20046;-73
2023/06/18 08:54:47;;;;;;;18.05;16.15;;;;;;;;;;5053420;28;20039;-74
2023/06/18 08:57:16;;;;;;;20.02;15.63;;;;;;;;;;4980719;28;20053;-74
2023/06/18 08:59:43;;;;;;;17.00;14.85;;;;;;;;;;4983607;28;20039;-74
2023/06/18 09:02:15;;;;;;;18.77;16.30;;;;;;;;;;5049543;28;20046;-74
2023/06/18 09:04:42;;;;;;;18.55;15.80;;;;;;;;;;4983855;28;20149;-74
2023/06/18 09:07:08;;;;;;;16.77;14.00;;;;;;;;;;4983960;28;20130;-74
2023/06/18 09:09:34;;;;;;;16.13;13.48;;;;;;;;;;4989235;28;20517;-74
2023/06/18 09:12:00;;;;;;;16.30;13.75;;;;;;;;;;5049938;28;20545;-74
2023/06/18 09:14:27;;;;;;;14.07;12.55;;;;;;;;;;4986151;28;20404;-74
2023/06/18 09:16:54;;;;;;;13.57;11.32;;;;;;;;;;4983066;28;20473;-75
2023/06/18 09:19:20;;;;;;;15.35;12.50;;;;;;;;;;5050157;28;20383;-73
2023/06/18 09:21:46;;;;;;;13.77;12.38;;;;;;;;;;5056635;28;20042;-74
2023/06/18 09:24:17;;;;;;;14.20;12.70;;;;;;;;;;4979261;28;20054;-74
2023/06/18 09:26:43;;;;;;;15.75;12.45;;;;;;;;;;5046373;28;20049;-74
2023/06/18 09:29:10;;;;;;;15.45;13.35;;;;;;;;;;5044038;28;20081;-74
2023/06/18 09:31:44;;;;;;;16.17;13.88;;;;;;;;;;4981061;28;20095;-74
2023/06/18 09:34:14;;;;;;;15.57;12.38;;;;;;;;;;4980448;28;20055;-74
2023/06/18 09:36:41;;;;;;;14.68;11.98;;;;;;;;;;4979935;28;20057;-74
2023/06/18 09:39:21;;;;;;;13.00;11.43;;;;;;;;;;5047873;28;20149;-74
2023/06/18 09:41:49;;;;;;;16.50;13.07;;;;;;;;;;4979079;28;20506;-74
2023/06/18 09:44:19;;;;;;;14.40;12.80;;;;;;;;;;4978050;28;20707;-73
2023/06/18 09:46:47;;;;;;;13.98;12.05;;;;;;;;;;5043275;28;20133;-73
2023/06/18 09:49:13;;;;;;;14.73;12.70;;;;;;;;;;4981515;28;20127;-74
2023/06/18 09:51:41;;;;;;;13.52;12.07;;;;;;;;;;5072556;28;20494;-73
2023/06/18 09:54:07;;;;;;;13.73;11.82;;;;;;;;;;4980245;28;20735;-74
2023/06/18 09:56:33;;;;;;;16.48;13.10;;;;;;;;;;4979197;28;20039;-74
2023/06/18 09:59:01;;;;;;;15.48;13.88;;;;;;;;;;5046537;28;20070;-74
2023/06/18 10:01:29;;;;;;;14.02;12.52;;;;;;;;;;5047652;28;20054;-74
2023/06/18 10:03:55;;;;;;;13.27;11.82;;;;;;;;;;4981556;28;20095;-74
2023/06/18 10:06:22;;;;;;;14.77;12.73;;;;;;;;;;4985613;28;20061;-74
2023/06/18 10:08:53;;;;;;;16.05;13.10;;;;;;;;;;5051838;28;20073;-74
2023/06/18 10:11:20;;;;;;;14.85;12.65;;;;;;;;;;5049844;28;20055;-74
2023/06/18 10:13:47;;;;;;;15.45;13.15;;;;;;;;;;4982404;28;20457;-74
2023/06/18 10:16:22;;;;;;;14.98;13.13;;;;;;;;;;4980924;28;20076;-74
2023/06/18 10:18:51;;;;;;;13.05;11.65;;;;;;;;;;5053702;28;20068;-74
2023/06/18 10:21:18;;;;;;;14.15;12.65;;;;;;;;;;4978385;28;20049;-74
2023/06/18 10:23:46;;;;;;;13.90;11.85;;;;;;;;;;4982723;28;20135;-74
2023/06/18 10:26:12;;;;;;;14.77;11.43;;;;;;;;;;4977881;28;20050;-73
2023/06/18 10:28:38;;;;;;;13.88;12.27;;;;;;;;;;4977738;28;20382;-74
2023/06/18 10:31:06;;;;;;;12.73;11.40;;;;;;;;;;4981028;28;20149;-74
2023/06/18 10:33:34;;;;;;;12.15;10.77;;;;;;;;;;4978673;28;20050;-74
2023/06/18 10:36:01;;;;;;;12.65;11.30;;;;;;;;;;4985450;28;20050;-74
2023/06/18 10:38:27;;;;;;;14.82;11.93;;;;;;;;;;5046005;28;20070;-74
2023/06/18 10:41:10;;;;;;;14.52;11.63;;;;;;;;;;4983510;28;20532;-73
2023/06/18 10:43:42;;;;;;;13.52;12.05;;;;;;;;;;4974702;28;20390;-74
2023/06/18 10:46:09;;;;;;;13.18;11.77;;;;;;;;;;4977102;28;20050;-74
2023/06/18 10:48:35;;;;;;;13.88;11.05;;;;;;;;;;5044925;28;20433;-74
2023/06/18 10:51:12;;;;;;;12.75;11.45;;;;;;;;;;4977380;28;20104;-74
2023/06/18 10:53:38;;;;;;;12.50;10.88;;;;;;;;;;4978246;28;20078;-73
2023/06/18 10:56:04;;;;;;;14.90;11.35;;;;;;;;;;4986500;28;20070;-74
2023/06/18 10:58:40;;;;;;;13.00;11.10;;;;;;;;;;4983998;28;20347;-74
2023/06/18 11:01:06;;;;;;;16.38;11.70;;;;;;;;;;4979134;28;21364;-74
2023/06/18 11:03:38;;;;;;;11.23;10.13;;;;;;;;;;5053304;28;20046;-74
2023/06/18 11:06:04;;;;;;;13.45;11.48;;;;;;;;;;4983723;28;20038;-74
2023/06/18 11:08:34;;;;;;;13.20;11.40;;;;;;;;;;4980889;28;20065;-71
2023/06/18 11:11:04;;;;;;;13.20;11.60;;;;;;;;;;4980848;28;20050;-73
2023/06/18 11:13:34;;;;;;;11.90;10.60;;;;;;;;;;4985869;28;20761;-73
2023/06/18 11:16:00;;;;;;;11.45;9.90;;;;;;;;;;5056777;28;20061;-73
2023/06/18 11:18:27;;;;;;;15.25;11.52;;;;;;;;;;4980778;28;20153;-74
2023/06/18 11:20:54;;;;;;;11.65;9.70;;;;;;;;;;4980102;28;20490;-73
2023/06/18 11:23:21;;;;;;;10.57;9.48;;;;;;;;;;4976308;28;20052;-73
2023/06/18 11:25:47;;;;;;;11.18;9.95;;;;;;;;;;5051827;28;20133;-73
2023/06/18 11:28:13;;;;;;;11.35;9.93;;;;;;;;;;4979341;28;20046;-73
2023/06/18 11:30:41;;;;;;;11.40;9.80;;;;;;;;;;5047653;28;20050;-73
2023/06/18 11:33:07;;;;;;;11.20;10.00;;;;;;;;;;4977425;28;21512;-73
2023/06/18 11:35:33;;;;;;;10.82;9.75;;;;;;;;;;4982537;28;20043;-74
2023/06/18 11:37:59;;;;;;;10.32;9.32;;;;;;;;;;4978825;28;20065;-73
2023/06/18 11:40:26;;;;;;;10.23;9.15;;;;;;;;;;4976872;28;20051;-73
2023/06/18 11:42:52;;;;;;;10.63;9.63;;;;;;;;;;4979974;28;20062;-72
2023/06/18 11:45:19;;;;;;;11.23;9.93;;;;;;;;;;4984159;28;20550;-73
2023/06/18 11:47:47;;;;;;;9.90;8.65;;;;;;;;;;5046922;28;20046;-73
2023/06/18 11:50:14;;;;;;;14.80;9.55;;;;;;;;;;4976369;28;20046;-73
2023/06/18 11:52:40;;;;;;;9.70;8.80;;;;;;;;;;4983195;28;20061;-73
2023/06/18 11:55:07;;;;;;;9.45;8.38;;;;;;;;;;4979541;28;20057;-73
2023/06/18 11:57:33;;;;;;;12.20;9.32;;;;;;;;;;4980745;28;20676;-74
2023/06/18 11:59:59;;;;;;;10.88;8.52;;;;;;;;;;4987390;28;20123;-73
2023/06/18 12:02:28;;;;;;;9.00;8.10;;;;;;;;;;4984362;28;20053;-73
2023/06/18 12:05:04;;;;;;;9.48;7.53;;;;;;;;;;4986380;28;20516;-73
2023/06/18 12:07:31;;;;;;;9.98;8.82;;;;;;;;;;4981280;28;20049;-73
2023/06/18 12:09:58;;;;;;;8.55;7.72;;;;;;;;;;4987375;28;20486;-73
2023/06/18 12:12:24;;;;;;;8.07;7.28;;;;;;;;;;4983381;28;20046;-73
2023/06/18 12:14:50;;;;;;;9.68;7.25;;;;;;;;;;4983115;28;20408;-73
2023/06/18 12:17:46;;;;;;;8.30;7.05;;;;;;;;;;4992165;28;20076;-73
2023/06/18 12:20:13;;;;;;;7.57;6.78;;;;;;;;;;5069791;28;20065;-72
2023/06/18 12:22:40;;;;;;;7.20;6.50;;;;;;;;;;4986226;28;20057;-73
2023/06/18 12:25:07;;;;;;;7.93;6.75;;;;;;;;;;4986506;28;20057;-72
2023/06/18 12:27:36;;;;;;;6.85;6.15;;;;;;;;;;4988412;28;20042;-73
2023/06/18 12:30:04;;;;;;;8.07;7.15;;;;;;;;;;4981355;28;20078;-74
2023/06/18 12:32:30;;;;;;;6.97;6.28;;;;;;;;;;5029741;28;20059;-73
2023/06/18 12:34:56;;;;;;;7.68;6.88;;;;;;;;;;4951010;28;20047;-73
2023/06/18 12:37:32;;;;;;;7.50;6.57;;;;;;;;;;4941967;28;20051;-73
2023/06/18 12:40:14;;;;;;;8.10;7.25;;;;;;;;;;4996966;28;20629;-73
2023/06/18 12:42:41;;;;;;;7.60;6.80;;;;;;;;;;4946554;28;20058;-73
2023/06/18 12:45:08;;;;;;;8.00;7.20;;;;;;;;;;4943934;28;20495;-73
2023/06/18 12:47:42;;;;;;;7.65;6.85;;;;;;;;;;4978450;28;20513;-72
2023/06/18 12:50:08;;;;;;;7.63;6.90;;;;;;;;;;4946646;28;20521;-73
2023/06/18 12:52:38;;;;;;;7.60;6.80;;;;;;;;;;4958307;28;20043;-74
2023/06/18 12:55:09;;;;;;;7.40;6.63;;;;;;;;;;5010377;28;20046;-74
2023/06/18 12:57:36;;;;;;;7.10;6.40;;;;;;;;;;4997666;28;20134;-74
2023/06/18 13:00:03;;;;;;;7.38;6.68;;;;;;;;;;4949377;28;20414;-74
2023/06/18 13:02:29;;;;;;;8.27;6.75;;;;;;;;;;4993079;28;20063;-74
2023/06/18 13:04:55;;;;;;;8.57;6.43;;;;;;;;;;4977441;28;20500;-74
2023/06/18 13:07:21;;;;;;;7.57;6.25;;;;;;;;;;4973004;28;20082;-74
2023/06/18 13:09:47;;;;;;;8.60;6.78;;;;;;;;;;4946498;28;20415;-74
2023/06/18 13:12:15;;;;;;;7.13;6.43;;;;;;;;;;4949286;28;20051;-73
2023/06/18 13:14:42;;;;;;;6.88;5.85;;;;;;;;;;4983808;28;20043;-74
2023/06/18 13:17:09;;;;;;;7.60;6.90;;;;;;;;;;4947549;28;20058;-74
2023/06/18 13:19:35;;;;;;;6.90;6.18;;;;;;;;;;4966824;28;20054;-73
2023/06/18 13:22:02;;;;;;;9.27;6.97;;;;;;;;;;4984415;28;20051;-74
2023/06/18 13:24:28;;;;;;;7.80;6.90;;;;;;;;;;4945459;28;20655;-74
2023/06/18 13:26:54;;;;;;;7.18;6.47;;;;;;;;;;4937595;28;20043;-74
2023/06/18 13:29:23;;;;;;;7.70;6.82;;;;;;;;;;4964670;28;20108;-74
2023/06/18 13:31:49;;;;;;;7.47;6.65;;;;;;;;;;4946669;28;20127;-75
2023/06/18 13:34:15;;;;;;;7.60;6.88;;;;;;;;;;4989507;28;20051;-75
2023/06/18 13:36:42;;;;;;;7.43;6.70;;;;;;;;;;4973809;28;20054;-74
2023/06/18 13:39:08;;;;;;;7.32;6.68;;;;;;;;;;4957189;28;20055;-73
2023/06/18 13:41:35;;;;;;;7.03;6.32;;;;;;;;;;4956506;28;20700;-74
2023/06/18 13:44:01;;;;;;;7.68;6.47;;;;;;;;;;4953350;28;20071;-74
2023/06/18 13:46:27;;;;;;;9.35;7.35;;;;;;;;;;4952438;28;20059;-74
2023/06/18 13:48:53;;;;;;;7.63;6.88;;;;;;;;;;5014291;28;20077;-75
2023/06/18 13:51:20;;;;;;;7.63;6.68;;;;;;;;;;5047733;28;20124;-74
2023/06/18 13:53:49;;;;;;;7.72;6.90;;;;;;;;;;4962083;28;20043;-74
2023/06/18 13:56:15;;;;;;;8.38;7.57;;;;;;;;;;4954535;28;20434;-74
2023/06/18 13:58:42;;;;;;;7.85;7.05;;;;;;;;;;5026096;28;20082;-73
2023/06/18 14:01:08;;;;;;;8.55;7.45;;;;;;;;;;5025257;28;20514;-74
2023/06/18 14:03:34;;;;;;;8.18;7.38;;;;;;;;;;5010436;28;20043;-74
2023/06/18 14:06:00;;;;;;;8.48;7.50;;;;;;;;;;4960396;28;20410;-73
2023/06/18 14:08:26;;;;;;;8.35;7.45;;;;;;;;;;4943803;28;21477;-73
2023/06/18 14:10:53;;;;;;;7.82;7.00;;;;;;;;;;4958101;28;20043;-73